Time;durP1;ratioP1;P1;durP2;ratioP2;P2;SDS_P1;SDS_P2;PMS_P1;PMS_P2;Temp;Humidity;BMP_temperature;BMP_pressure;BME280_temperature;BME280_humidity;BME280_pressure;Samples;Min_cycle;Max_cycle;Signal;HPM_P1;HPM_P2
2023/10/15 00:00:24;;;;;;;;;;;14.00;62.60;;;9.35;100.00;95782.31;4974644;28;19975;-46
2023/10/15 00:02:51;;;;;;;;;;;14.00;62.60;;;9.32;100.00;95777.50;4975208;28;20387;-46
2023/10/15 00:05:21;;;;;;;;;;;13.90;62.60;;;9.31;100.00;95786.50;4972505;28;19910;-46
2023/10/15 00:07:49;;;;;;;;;;;13.90;62.60;;;9.29;100.00;95772.69;4985785;28;19910;-47
2023/10/15 00:10:18;;;;;;;;;;;13.90;62.60;;;9.29;100.00;95759.41;4975439;28;19917;-46
2023/10/15 00:12:47;;;;;;;;;;;13.90;62.60;;;9.28;100.00;95761.25;4974378;28;20338;-46
2023/10/15 00:15:24;;;;;;;;;;;13.90;62.60;;;9.25;100.00;95762.56;4974953;28;19909;-48
2023/10/15 00:17:52;;;;;;;;;;;13.90;62.70;;;9.25;100.00;95751.13;4972031;28;20376;-46
2023/10/15 00:20:22;;;;;;;;;;;13.90;62.70;;;9.25;100.00;95756.44;4975005;28;19956;-47
2023/10/15 00:22:50;;;;;;;;;;;13.90;62.70;;;9.24;100.00;95752.16;4974272;28;19910;-47
2023/10/15 00:25:19;;;;;;;;;;;13.80;62.70;;;9.23;100.00;95756.69;4975209;28;19910;-46
2023/10/15 00:27:54;;;;;;;;;;;13.80;62.80;;;9.20;100.00;95759.84;4974824;28;19910;-51
2023/10/15 00:30:22;;;;;;;;;;;13.80;62.80;;;9.19;100.00;95760.09;4973858;28;19917;-48
2023/10/15 00:32:52;;;;;;;;;;;13.80;62.80;;;9.15;100.00;95759.81;4975078;28;19948;-46
2023/10/15 00:35:21;;;;;;;;;;;13.80;62.80;;;9.13;100.00;95764.56;4973787;28;20396;-52
2023/10/15 00:37:56;;;;;;;;;;;13.80;62.90;;;9.13;100.00;95766.44;4967392;28;20012;-46
2023/10/15 00:40:24;;;;;;;;;;;13.80;62.90;;;9.13;100.00;95766.44;4974756;28;19913;-46
2023/10/15 00:42:51;;;;;;;;;;;13.80;62.90;;;9.13;100.00;95755.78;4973611;28;19916;-50
2023/10/15 00:45:19;;;;;;;;;;;13.80;63.00;;;9.15;100.00;95756.31;4974611;28;19910;-47
2023/10/15 00:48:07;;;;;;;;;;;13.80;63.00;;;9.14;100.00;95762.72;4973732;28;19910;-48
2023/10/15 00:50:38;;;;;;;;;;;13.80;63.00;;;9.09;100.00;95763.47;4972908;28;19917;-48
2023/10/15 00:53:21;;;;;;;;;;;13.80;63.00;;;9.09;100.00;95746.69;4973630;28;20053;-47
2023/10/15 00:56:10;;;;;;;;;;;13.80;63.10;;;9.10;100.00;95748.31;4973388;28;20320;-51
2023/10/15 01:03:59;;;;;;;;;;;13.70;63.00;;;9.05;100.00;95749.06;4974333;28;19924;-50
2023/10/15 01:06:30;;;;;;;;;;;13.70;63.10;;;9.02;100.00;95744.25;4967959;28;19910;-46
2023/10/15 01:09:08;;;;;;;;;;;13.70;63.20;;;9.01;100.00;95735.47;4974523;28;19916;-48
2023/10/15 01:11:51;;;;;;;;;;;13.60;63.20;;;9.00;100.00;95727.75;4972195;28;19937;-47
2023/10/15 01:14:35;;;;;;;;;;;13.60;63.20;;;8.98;100.00;95737.84;4973906;28;20036;-48
2023/10/15 01:17:01;;;;;;;;;;;13.60;63.20;;;8.95;100.00;95743.66;4971840;28;19913;-46
2023/10/15 01:19:32;;;;;;;;;;;13.60;63.30;;;8.93;100.00;95743.91;4974047;28;20297;-45
2023/10/15 01:22:04;;;;;;;;;;;13.60;63.30;;;8.92;100.00;95742.28;4974697;28;20005;-46
2023/10/15 01:24:36;;;;;;;;;;;13.60;63.30;;;8.89;100.00;95742.78;4973046;28;19997;-50
2023/10/15 01:29:42;;;;;;;;;;;13.60;63.30;;;8.86;100.00;95735.31;4973558;28;20004;-48
2023/10/15 01:32:11;;;;;;;;;;;13.60;63.30;;;8.85;100.00;95733.72;4972634;28;19925;-46
2023/10/15 01:34:40;;;;;;;;;;;13.50;63.30;;;8.82;100.00;95738.72;4973625;28;19920;-50
2023/10/15 01:40:26;;;;;;;;;;;13.50;63.30;;;8.78;100.00;95728.59;4963819;28;20371;-49
2023/10/15 01:42:53;;;;;;;;;;;13.50;63.30;;;8.76;100.00;95740.53;4972535;28;19964;-48
2023/10/15 01:45:30;;;;;;;;;;;13.50;63.30;;;8.76;100.00;95740.53;4973496;28;19917;-48
2023/10/15 01:48:05;;;;;;;;;;;13.50;63.40;;;8.76;100.00;95735.22;4973056;28;19959;-46
2023/10/15 01:50:46;;;;;;;;;;;13.40;63.40;;;8.73;100.00;95736.50;4973885;28;20385;-50
2023/10/15 01:53:12;;;;;;;;;;;13.40;63.40;;;8.74;100.00;95734.66;4972613;28;20352;-50
2023/10/15 01:55:52;;;;;;;;;;;13.40;63.50;;;8.74;100.00;95743.44;4973263;28;19918;-46
2023/10/15 01:58:24;;;;;;;;;;;13.40;63.50;;;8.72;100.00;95748.19;4973589;28;19964;-51
2023/10/15 02:00:51;;;;;;;;;;;13.40;63.60;;;8.72;100.00;95740.22;4971179;28;20411;-46
2023/10/15 02:03:17;;;;;;;;;;;13.40;63.60;;;8.73;100.00;95738.38;4973163;28;19916;-47
2023/10/15 02:05:43;;;;;;;;;;;13.40;63.60;;;8.73;100.00;95738.38;4972253;28;19910;-50
2023/10/15 02:08:24;;;;;;;;;;;13.40;63.70;;;8.74;100.00;95742.63;4973133;28;19909;-46
2023/10/15 02:10:52;;;;;;;;;;;13.40;63.70;;;8.77;100.00;95739.47;4966375;28;19921;-46
2023/10/15 02:13:22;;;;;;;;;;;13.40;63.70;;;8.79;100.00;95738.16;4973391;28;19922;-46
2023/10/15 02:15:49;;;;;;;;;;;13.50;63.80;;;8.82;100.00;95739.53;4968047;28;19917;-48
2023/10/15 02:18:19;;;;;;;;;;;13.50;63.80;;;8.81;100.00;95745.91;4972188;28;19933;-45
2023/10/15 02:23:18;;;;;;;;;;;13.50;63.70;;;8.82;100.00;95731.56;4972413;28;20009;-46
2023/10/15 02:25:46;;;;;;;;;;;13.50;63.70;;;8.80;100.00;95738.97;4969847;28;19997;-46
2023/10/15 02:28:16;;;;;;;;;;;13.50;63.60;;;8.79;100.00;95738.16;4973061;28;19949;-46
2023/10/15 02:30:46;;;;;;;;;;;13.50;63.60;;;8.76;100.00;95727.25;4971844;28;20328;-46
2023/10/15 02:33:16;;;;;;;;;;;13.50;63.60;;;8.77;100.00;95736.81;4972927;28;19918;-46
2023/10/15 02:35:47;;;;;;;;;;;13.50;63.60;;;8.73;100.00;95741.81;4971781;28;19914;-46
2023/10/15 02:38:16;;;;;;;;;;;13.50;63.50;;;8.74;100.00;95747.94;4973253;28;19914;-46
2023/10/15 02:41:03;;;;;;;;;;;13.50;63.50;;;8.73;100.00;95736.50;4972075;28;19914;-46
2023/10/15 02:43:30;;;;;;;;;;;13.40;63.40;;;8.69;100.00;95734.59;4972589;28;19909;-45
2023/10/15 02:46:00;;;;;;;;;;;13.40;63.50;;;8.70;100.00;95739.66;4972716;28;19916;-46
2023/10/15 02:48:31;;;;;;;;;;;13.30;63.40;;;8.69;100.00;95747.88;4971927;28;19945;-45
2023/10/15 02:51:39;;;;;;;;;;;13.30;63.50;;;8.69;100.00;95747.88;4973093;28;20289;-46
2023/10/15 02:56:32;;;;;;;;;;;13.30;63.60;;;8.64;100.00;95742.50;4972613;28;19924;-47
2023/10/15 02:58:59;;;;;;;;;;;13.30;63.60;;;8.62;100.00;95742.78;4971964;28;19910;-46
2023/10/15 03:01:25;;;;;;;;;;;13.20;63.60;;;8.60;100.00;95736.09;4972592;28;19957;-46
2023/10/15 03:03:54;;;;;;;;;;;13.30;63.60;;;8.55;100.00;95734.16;4972683;28;19909;-46
2023/10/15 03:06:31;;;;;;;;;;;13.20;63.50;;;8.48;100.00;95729.03;4967489;28;19945;-46
2023/10/15 03:08:59;;;;;;;;;;;13.20;63.50;;;8.50;100.00;95732.25;4972133;28;20012;-46
2023/10/15 03:11:31;;;;;;;;;;;13.10;63.40;;;8.50;100.00;95736.78;4967122;28;19914;-47
2023/10/15 03:14:00;;;;;;;;;;;13.10;63.60;;;8.50;100.00;95742.88;4975645;28;19944;-52
2023/10/15 03:16:35;;;;;;;;;;;13.10;63.60;;;8.50;100.00;95745.53;4974042;28;19909;-48
2023/10/15 03:19:19;;;;;;;;;;;13.10;63.60;;;8.50;100.00;95755.38;4964640;28;19910;-52
2023/10/15 03:21:45;;;;;;;;;;;13.10;63.70;;;8.47;100.00;95754.00;4976591;28;20423;-47
2023/10/15 03:24:14;;;;;;;;;;;13.10;63.70;;;8.46;100.00;95747.09;4975496;28;20038;-48
2023/10/15 03:26:47;;;;;;;;;;;13.10;63.70;;;8.47;100.00;95748.69;4976408;28;19909;-49
2023/10/15 03:29:15;;;;;;;;;;;13.10;63.70;;;8.48;100.00;95741.53;4975625;28;20004;-50
2023/10/15 03:32:30;;;;;;;;;;;13.10;63.70;;;8.43;100.00;95738.78;4971756;28;20017;-49
2023/10/15 03:34:35;;;;;;;;;;;13.10;63.70;;;8.36;100.00;95736.28;4980674;28;19924;-49
2023/10/15 03:37:02;;;;;;;;;;;13.10;63.70;;;8.30;100.00;95748.72;4973925;28;19964;-47
2023/10/15 03:44:49;;;;;;;;;;;13.00;63.70;;;8.27;100.00;95740.41;4976504;28;19910;-47
2023/10/15 03:47:22;;;;;;;;;;;13.00;63.80;;;8.28;100.00;95750.00;4975377;28;20383;-49
2023/10/15 03:49:51;;;;;;;;;;;13.00;63.80;;;8.23;100.00;95752.59;4973394;28;20376;-50
2023/10/15 03:52:22;;;;;;;;;;;12.90;63.80;;;8.23;100.00;95739.31;4968564;28;20037;-49
2023/10/15 03:54:51;;;;;;;;;;;12.90;63.80;;;8.23;100.00;95737.47;4973987;28;20304;-50
2023/10/15 03:57:27;;;;;;;;;;;12.90;63.80;;;8.16;100.00;95738.69;4986242;28;20369;-48
2023/10/15 03:59:55;;;;;;;;;;;12.90;63.80;;;8.15;100.00;95732.59;4977396;28;20368;-51
2023/10/15 04:02:23;;;;;;;;;;;12.90;63.80;;;8.19;100.00;95736.34;4964804;28;20068;-54
2023/10/15 04:05:11;;;;;;;;;;;12.90;63.80;;;8.13;100.00;95739.19;4972730;28;19952;-51
2023/10/15 04:07:56;;;;;;;;;;;12.90;63.80;;;8.11;100.00;95734.13;4975275;28;19910;-52
2023/10/15 04:10:34;;;;;;;;;;;12.80;63.80;;;8.16;100.00;95742.16;4960903;28;19914;-50
2023/10/15 04:13:01;;;;;;;;;;;12.80;63.80;;;8.19;100.00;95743.53;4979368;28;19913;-52
2023/10/15 04:15:27;;;;;;;;;;;12.80;63.80;;;8.22;100.00;95740.38;4971686;28;19941;-49
2023/10/15 04:17:53;;;;;;;;;;;12.80;63.90;;;8.22;100.00;95738.53;4969847;28;20001;-49
2023/10/15 04:20:54;;;;;;;;;;;12.80;63.90;;;8.21;100.00;95739.56;4971954;28;20009;-53
2023/10/15 04:23:13;;;;;;;;;;;12.80;63.80;;;8.24;100.00;95746.22;4970118;28;19914;-51
2023/10/15 04:25:40;;;;;;;;;;;12.80;63.90;;;8.23;100.00;95739.31;4966222;28;19913;-51
2023/10/15 04:28:16;;;;;;;;;;;12.90;63.80;;;8.20;100.00;95735.28;4969108;28;19917;-49
2023/10/15 04:30:42;;;;;;;;;;;12.90;63.80;;;8.20;100.00;95737.94;4974591;28;19983;-48
2023/10/15 04:33:13;;;;;;;;;;;12.90;63.80;;;8.19;100.00;95740.88;4975171;28;19917;-51
2023/10/15 04:35:42;;;;;;;;;;;12.80;63.80;;;8.15;100.00;95729.94;4970288;28;20412;-50
2023/10/15 04:38:07;;;;;;;;;;;12.80;63.80;;;8.16;100.00;95742.16;4975006;28;19909;-50
2023/10/15 04:40:48;;;;;;;;;;;12.80;63.80;;;8.18;100.00;95744.53;4974641;28;19913;-50
2023/10/15 04:43:14;;;;;;;;;;;12.80;63.80;;;8.17;100.00;95740.28;4970694;28;20262;-50
2023/10/15 04:45:42;;;;;;;;;;;12.90;63.80;;;8.18;100.00;95736.59;4974814;28;19924;-50
2023/10/15 04:48:25;;;;;;;;;;;12.80;63.80;;;8.16;100.00;95739.50;4973999;28;20286;-54
2023/10/15 04:50:52;;;;;;;;;;;12.80;63.80;;;8.18;100.00;95745.38;4975696;28;19910;-49
2023/10/15 04:55:44;;;;;;;;;;;12.90;63.80;;;8.18;100.00;95741.91;4961291;28;20369;-51
2023/10/15 04:58:10;;;;;;;;;;;12.90;64.70;;;8.19;100.00;95740.88;4973426;28;19929;-50
2023/10/15 05:00:49;;;;;;;;;;;12.90;63.80;;;8.19;100.00;95751.47;4973704;28;19910;-50
2023/10/15 05:03:16;;;;;;;;;;;12.90;63.80;;;8.20;100.00;95747.78;4968610;28;20379;-52
2023/10/15 05:05:44;;;;;;;;;;;12.90;63.80;;;8.22;100.00;95748.34;4973495;28;20404;-50
2023/10/15 05:08:11;;;;;;;;;;;12.90;63.90;;;8.20;100.00;95751.22;4963791;28;19914;-53
2023/10/15 05:10:50;;;;;;;;;;;12.80;63.90;;;8.16;100.00;95749.31;4965284;28;19925;-50
2023/10/15 05:13:17;;;;;;;;;;;12.80;63.90;;;8.14;100.00;95748.75;4970700;28;19960;-49
2023/10/15 05:15:50;;;;;;;;;;;12.80;63.90;;;8.16;100.00;95754.63;4966697;28;20008;-52
2023/10/15 05:18:18;;;;;;;;;;;12.80;63.90;;;8.15;100.00;95748.53;4974204;28;20269;-51
2023/10/15 05:20:47;;;;;;;;;;;12.80;63.90;;;8.15;100.00;95751.16;4974237;28;19910;-52
2023/10/15 05:23:14;;;;;;;;;;;12.80;63.90;;;8.12;100.00;95749.00;4971946;28;19910;-50
2023/10/15 05:25:40;;;;;;;;;;;12.80;63.90;;;8.13;100.00;95747.16;4974043;28;19917;-53
2023/10/15 05:28:07;;;;;;;;;;;12.80;63.90;;;8.11;100.00;95752.69;4974319;28;20324;-50
2023/10/15 05:30:34;;;;;;;;;;;12.80;63.90;;;8.10;100.00;95746.59;4973615;28;19956;-49
2023/10/15 05:33:01;;;;;;;;;;;12.80;63.90;;;8.09;100.00;95747.63;4973912;28;20391;-50
2023/10/15 05:35:27;;;;;;;;;;;12.80;63.90;;;8.08;100.00;95748.69;4968773;28;19955;-49
2023/10/15 05:37:56;;;;;;;;;;;12.80;64.00;;;8.06;100.00;95748.13;4972710;28;19953;-55
2023/10/15 05:40:22;;;;;;;;;;;12.80;63.90;;;8.06;100.00;95752.63;4973764;28;20325;-50
2023/10/15 05:42:49;;;;;;;;;;;12.80;64.00;;;8.06;100.00;95755.28;4972782;28;19975;-55
2023/10/15 05:45:15;;;;;;;;;;;12.80;64.00;;;8.05;100.00;95754.50;4962493;28;19933;-51
2023/10/15 05:47:45;;;;;;;;;;;12.80;64.10;;;8.06;100.00;95756.09;4972484;28;20358;-50
2023/10/15 05:50:16;;;;;;;;;;;12.80;64.10;;;8.06;100.00;95747.31;4973815;28;19910;-52
2023/10/15 05:52:42;;;;;;;;;;;12.80;64.90;;;8.04;100.00;95750.22;4973588;28;20016;-51
2023/10/15 05:55:11;;;;;;;;;;;12.80;64.10;;;8.05;100.00;95751.84;4973220;28;20293;-52
2023/10/15 05:57:39;;;;;;;;;;;12.80;64.10;;;8.07;100.00;95752.38;4966797;28;19922;-51
2023/10/15 06:00:18;;;;;;;;;;;12.80;64.10;;;8.09;100.00;95760.09;4968794;28;20320;-53
2023/10/15 06:02:50;;;;;;;;;;;12.80;64.10;;;8.10;100.00;95765.16;4985506;28;20378;-52
2023/10/15 06:05:16;;;;;;;;;;;12.80;64.20;;;8.10;100.00;95765.16;4970020;28;19916;-49
2023/10/15 06:07:46;;;;;;;;;;;12.80;64.30;;;8.14;100.00;95773.44;4965836;28;19980;-47
2023/10/15 06:10:12;;;;;;;;;;;12.80;64.30;;;8.16;100.00;95776.66;4973882;28;20430;-47
2023/10/15 06:12:42;;;;;;;;;;;12.80;64.40;;;8.19;100.00;95786.78;4972572;28;19918;-50
2023/10/15 06:15:11;;;;;;;;;;;12.80;64.30;;;8.18;100.00;95777.22;4969448;28;20297;-48
2023/10/15 06:17:37;;;;;;;;;;;12.90;64.40;;;8.16;100.00;95781.16;4971878;28;19920;-51
2023/10/15 06:20:12;;;;;;;;;;;12.90;64.40;;;8.17;100.00;95775.59;4973706;28;19910;-48
2023/10/15 06:22:43;;;;;;;;;;;12.90;64.30;;;8.16;100.00;95776.66;4973264;28;19913;-53
2023/10/15 06:25:13;;;;;;;;;;;13.00;64.20;;;8.23;100.00;95777.28;4965924;28;19914;-51
2023/10/15 06:27:40;;;;;;;;;;;13.00;64.20;;;8.24;100.00;95773.59;4970802;28;20301;-48
2023/10/15 06:30:16;;;;;;;;;;;13.00;64.20;;;8.27;100.00;95790.84;4966340;28;20016;-50
2023/10/15 06:32:43;;;;;;;;;;;13.00;64.20;;;8.30;100.00;95787.72;4973469;28;20340;-49
2023/10/15 06:35:14;;;;;;;;;;;13.00;64.20;;;8.30;100.00;95790.34;4977157;28;19937;-55
2023/10/15 06:37:41;;;;;;;;;;;13.10;64.30;;;8.33;100.00;95793.31;4966054;28;19918;-50
2023/10/15 06:40:10;;;;;;;;;;;13.10;64.30;;;8.31;100.00;95800.75;4975601;28;19955;-51
2023/10/15 06:42:36;;;;;;;;;;;13.10;64.30;;;8.35;100.00;95799.19;4972015;28;19955;-47
2023/10/15 06:45:04;;;;;;;;;;;13.10;64.30;;;8.42;100.00;95809.66;4974601;28;19971;-52
2023/10/15 06:47:30;;;;;;;;;;;13.20;64.30;;;8.41;100.00;95816.03;4974996;28;19937;-52
2023/10/15 06:49:56;;;;;;;;;;;13.20;64.30;;;8.44;100.00;95815.56;4966252;28;19941;-50
2023/10/15 06:52:21;;;;;;;;;;;13.20;64.30;;;8.40;100.00;95814.44;4968955;28;19944;-53
2023/10/15 06:54:48;;;;;;;;;;;13.30;64.30;;;8.46;100.00;95813.47;4976406;28;19909;-51
2023/10/15 06:57:16;;;;;;;;;;;13.40;64.20;;;8.51;100.00;95816.16;4976707;28;20288;-52
2023/10/15 06:59:43;;;;;;;;;;;13.40;64.00;;;8.56;100.00;95823.41;4970947;28;20404;-52
2023/10/15 07:02:10;;;;;;;;;;;13.50;64.00;;;8.61;100.00;95826.13;4966536;28;19910;-50
2023/10/15 07:04:35;;;;;;;;;;;13.50;64.00;;;8.66;100.00;95826.19;4980853;28;19952;-51
2023/10/15 07:07:01;;;;;;;;;;;13.60;64.00;;;8.75;100.00;95829.22;4975897;28;19948;-50
2023/10/15 07:09:27;;;;;;;;;;;13.70;63.90;;;8.82;100.00;95829.84;4976595;28;19910;-55
2023/10/15 07:11:53;;;;;;;;;;;13.70;63.80;;;8.81;100.00;95825.59;4971581;28;19918;-52
2023/10/15 07:14:20;;;;;;;;;;;13.80;63.80;;;8.80;100.00;95832.72;4976870;28;20005;-52
2023/10/15 07:16:45;;;;;;;;;;;13.80;63.70;;;8.89;100.00;95829.66;4968610;28;19964;-53
2023/10/15 07:19:11;;;;;;;;;;;13.90;63.60;;;8.93;100.00;95836.06;4980700;28;19914;-52
2023/10/15 07:21:37;;;;;;;;;;;14.00;63.60;;;8.98;100.00;95839.59;4967441;28;19910;-49
2023/10/15 07:24:05;;;;;;;;;;;14.00;63.50;;;9.01;100.00;95838.31;4974203;28;19917;-50
2023/10/15 07:26:31;;;;;;;;;;;14.10;63.40;;;9.09;100.00;95837.88;4974732;28;19910;-50
2023/10/15 07:28:56;;;;;;;;;;;14.10;63.30;;;9.13;100.00;95838.97;4974857;28;19917;-46
2023/10/15 07:31:22;;;;;;;;;;;14.10;63.40;;;9.15;100.00;95842.19;4976018;28;19910;-48
2023/10/15 07:33:48;;;;;;;;;;;14.20;64.30;;;9.17;100.00;95839.28;4975927;28;19945;-48
2023/10/15 07:36:13;;;;;;;;;;;14.20;63.30;;;9.20;100.00;95849.41;4975142;28;19910;-46
2023/10/15 07:38:39;;;;;;;;;;;14.30;63.20;;;9.24;100.00;95845.19;4976182;28;20527;-45
2023/10/15 07:41:06;;;;;;;;;;;14.40;64.00;;;9.33;100.00;95843.69;4975117;28;20459;-45
2023/10/15 07:43:32;;;;;;;;;;;14.50;63.10;;;9.33;100.00;95849.03;4975506;28;19913;-45
2023/10/15 07:45:59;;;;;;;;;;;14.60;63.10;;;9.44;100.00;95853.41;4975983;28;19917;-45
2023/10/15 07:48:25;;;;;;;;;;;14.70;62.90;;;9.45;100.00;95848.88;4974108;28;20282;-45
2023/10/15 07:50:51;;;;;;;;;;;14.70;62.80;;;9.59;100.00;95852.75;4975858;28;19914;-46
2023/10/15 07:53:16;;;;;;;;;;;14.80;62.70;;;9.76;100.00;95849.97;4974821;28;19925;-47
2023/10/15 07:55:42;;;;;;;;;;;14.90;62.70;;;9.87;100.00;95854.34;4974014;28;19910;-46
2023/10/15 07:58:09;;;;;;;;;;;15.10;62.70;;;9.92;100.00;95861.56;4975606;28;20063;-47
2023/10/15 08:00:35;;;;;;;;;;;15.20;62.70;;;9.92;100.00;95861.56;4973790;28;20000;-46
2023/10/15 08:03:01;;;;;;;;;;;15.20;62.60;;;9.95;100.00;95864.50;4975719;28;20568;-48
2023/10/15 08:05:31;;;;;;;;;;;15.20;62.40;;;9.91;100.00;95866.09;4974529;28;20004;-48
2023/10/15 08:07:57;;;;;;;;;;;15.20;62.20;;;10.04;100.00;95877.38;4975109;28;20022;-49
2023/10/15 08:10:25;;;;;;;;;;;15.40;61.90;;;10.02;97.99;95874.94;4975606;28;19953;-47
2023/10/15 08:12:52;;;;;;;;;;;15.60;61.60;;;10.00;97.67;95876.25;4971432;28;19914;-46
2023/10/15 08:15:19;;;;;;;;;;;15.60;61.30;;;9.94;97.64;95875.41;4975293;28;19917;-47
2023/10/15 08:17:46;;;;;;;;;;;15.60;61.10;;;10.10;99.17;95874.50;4973967;28;19910;-49
2023/10/15 08:20:12;;;;;;;;;;;15.60;60.90;;;10.12;97.14;95869.72;4970657;28;19920;-46
2023/10/15 08:22:44;;;;;;;;;;;15.70;60.80;;;10.24;96.42;95874.06;4975484;28;20016;-50
2023/10/15 08:25:13;;;;;;;;;;;15.80;61.40;;;10.28;96.64;95878.66;4974654;28;20369;-46
2023/10/15 08:27:44;;;;;;;;;;;15.80;60.40;;;10.36;96.07;95878.16;4975008;28;19910;-46
2023/10/15 08:30:14;;;;;;;;;;;15.80;60.40;;;10.41;96.40;95878.22;4974313;28;20335;-47
2023/10/15 08:32:45;;;;;;;;;;;15.80;60.40;;;10.43;96.18;95875.28;4974845;28;19964;-47
2023/10/15 08:35:13;;;;;;;;;;;15.90;60.40;;;10.39;94.88;95876.84;4974243;28;19924;-47
2023/10/15 08:37:41;;;;;;;;;;;15.90;60.30;;;10.35;94.38;95873.91;4974210;28;19910;-46
2023/10/15 08:40:07;;;;;;;;;;;15.90;60.10;;;10.36;92.88;95875.50;4975025;28;19910;-49
2023/10/15 08:42:42;;;;;;;;;;;15.90;59.90;;;10.47;93.22;95881.72;4973954;28;20402;-46
2023/10/15 08:45:08;;;;;;;;;;;16.00;59.80;;;10.52;93.69;95880.94;4973602;28;19916;-47
2023/10/15 08:47:36;;;;;;;;;;;16.00;59.70;;;10.52;93.76;95880.94;4973604;28;19909;-46
2023/10/15 08:50:02;;;;;;;;;;;16.10;59.60;;;10.63;92.10;95886.09;4974567;28;19933;-47
2023/10/15 08:52:31;;;;;;;;;;;16.20;59.60;;;10.63;91.19;95877.28;4974542;28;19967;-51
2023/10/15 08:55:01;;;;;;;;;;;16.20;59.40;;;10.74;90.37;95880.81;4973757;28;20289;-46
2023/10/15 08:57:29;;;;;;;;;;;16.30;59.30;;;10.84;90.13;95884.34;4974297;28;19963;-47
2023/10/15 08:59:57;;;;;;;;;;;16.30;59.20;;;10.89;89.36;95878.22;4973453;28;20407;-46
2023/10/15 09:02:24;;;;;;;;;;;16.40;59.10;;;10.98;89.45;95882.00;4974660;28;20434;-46
2023/10/15 09:04:52;;;;;;;;;;;16.50;59.00;;;10.81;85.53;95884.88;4973757;28;19913;-49
2023/10/15 09:07:19;;;;;;;;;;;16.60;58.90;;;10.83;86.34;95885.38;4974265;28;19909;-47
2023/10/15 09:09:45;;;;;;;;;;;16.60;58.40;;;10.84;86.17;95886.19;4974299;28;19910;-46
2023/10/15 09:12:12;;;;;;;;;;;16.70;58.40;;;10.84;86.28;95884.34;4968940;28;19913;-46
2023/10/15 09:14:47;;;;;;;;;;;16.60;58.20;;;10.93;86.22;95886.50;4973871;28;20055;-48
2023/10/15 09:17:16;;;;;;;;;;;16.50;58.20;;;11.00;86.48;95895.88;4973406;28;20425;-47
2023/10/15 09:19:46;;;;;;;;;;;16.40;58.30;;;10.95;87.21;95884.38;4973705;28;19914;-48
2023/10/15 09:22:15;;;;;;;;;;;16.40;58.30;;;10.94;86.03;95882.78;4974201;28;19917;-49
2023/10/15 09:24:42;;;;;;;;;;;16.30;58.80;;;10.93;87.71;95889.97;4973009;28;19917;-51
2023/10/15 09:27:08;;;;;;;;;;;16.40;58.20;;;10.96;87.67;95888.66;4973352;28;19921;-48
2023/10/15 09:29:33;;;;;;;;;;;16.30;58.20;;;10.95;85.92;95881.72;4973025;28;19910;-47
2023/10/15 09:32:04;;;;;;;;;;;16.40;58.30;;;11.02;86.39;95880.41;4973741;28;20371;-47
2023/10/15 09:34:32;;;;;;;;;;;16.30;58.30;;;11.05;85.16;95884.44;4970172;28;20051;-48
2023/10/15 09:36:59;;;;;;;;;;;16.40;58.30;;;11.08;86.01;95894.56;4972497;28;19921;-52
2023/10/15 09:39:29;;;;;;;;;;;16.40;58.80;;;11.07;83.45;95885.00;4973721;28;19910;-49
2023/10/15 09:42:02;;;;;;;;;;;16.40;58.10;;;10.85;81.44;95885.94;4972943;28;19914;-47
2023/10/15 09:44:29;;;;;;;;;;;16.40;57.90;;;10.88;83.94;95890.75;4973597;28;19909;-50
2023/10/15 09:46:56;;;;;;;;;;;16.40;57.50;;;10.82;82.77;95883.78;4972896;28;19909;-50
2023/10/15 09:49:23;;;;;;;;;;;16.40;57.40;;;10.94;84.25;95886.25;4988312;28;19972;-46
2023/10/15 09:51:52;;;;;;;;;;;16.40;57.30;;;11.03;81.22;95886.53;4972246;28;19914;-49
2023/10/15 09:54:19;;;;;;;;;;;16.40;57.30;;;11.04;78.47;95885.50;4972607;28;20015;-50
2023/10/15 09:56:49;;;;;;;;;;;16.50;57.20;;;11.10;78.89;95887.13;4972946;28;19917;-47
2023/10/15 09:59:15;;;;;;;;;;;16.70;57.10;;;11.10;77.41;95877.25;4972068;28;19924;-49
2023/10/15 10:01:49;;;;;;;;;;;16.80;56.60;;;11.13;75.94;95883.94;4973202;28;20458;-47
2023/10/15 10:04:43;;;;;;;;;;;17.00;56.50;;;11.32;76.51;95882.41;4972398;28;19909;-47
2023/10/15 10:07:15;;;;;;;;;;;17.20;56.30;;;11.44;74.39;95876.84;4966960;28;20078;-46
2023/10/15 10:10:05;;;;;;;;;;;17.50;55.80;;;11.68;75.02;95882.50;4973201;28;19924;-47
2023/10/15 10:12:54;;;;;;;;;;;17.70;55.50;;;11.91;72.36;95883.94;4972251;28;20365;-48
2023/10/15 10:15:49;;;;;;;;;;;18.00;55.30;;;12.13;72.87;95888.22;4973336;28;19996;-49
2023/10/15 10:18:16;;;;;;;;;;;18.20;54.90;;;12.18;72.02;95875.66;4957071;28;19917;-47
2023/10/15 10:20:48;;;;;;;;;;;18.40;54.60;;;12.30;70.96;95869.25;4972350;28;19924;-47
2023/10/15 10:23:15;;;;;;;;;;;18.70;54.20;;;12.49;71.08;95883.66;4971292;28;19940;-49
2023/10/15 10:25:45;;;;;;;;;;;18.90;53.90;;;12.55;69.91;95879.91;4973062;28;20424;-47
2023/10/15 10:28:14;;;;;;;;;;;19.00;53.30;;;12.76;70.64;95878.00;4973127;28;19910;-49
2023/10/15 10:31:00;;;;;;;;;;;19.10;53.20;;;12.83;69.89;95872.38;4971939;28;19917;-53
2023/10/15 10:33:44;;;;;;;;;;;19.20;53.30;;;13.01;69.10;95871.00;4972903;28;20332;-51
2023/10/15 10:36:16;;;;;;;;;;;19.30;53.40;;;12.84;68.77;95861.41;4972208;28;20400;-47
2023/10/15 10:38:44;;;;;;;;;;;19.20;53.00;;;12.72;70.79;95867.06;4972503;28;19913;-47
2023/10/15 10:41:14;;;;;;;;;;;19.10;52.50;;;12.83;67.83;95875.03;4971003;28;20434;-51
2023/10/15 10:43:44;;;;;;;;;;;19.00;52.60;;;12.83;68.84;95870.50;4969650;28;19964;-50
2023/10/15 10:46:23;;;;;;;;;;;18.90;52.70;;;12.83;69.42;95875.84;4972849;28;20277;-50
2023/10/15 10:49:13;;;;;;;;;;;18.70;52.60;;;12.77;70.13;95865.44;4971804;28;20005;-47
2023/10/15 10:51:41;;;;;;;;;;;18.60;52.60;;;12.60;68.35;95861.19;4972932;28;19976;-50
2023/10/15 10:54:07;;;;;;;;;;;18.60;52.60;;;12.28;68.20;95861.47;4972129;28;19910;-47
2023/10/15 10:56:39;;;;;;;;;;;18.50;52.10;;;12.29;69.54;95857.75;4972459;28;20399;-49
2023/10/15 10:59:06;;;;;;;;;;;18.50;52.00;;;12.54;68.98;95851.59;4971770;28;19909;-51
2023/10/15 11:01:45;;;;;;;;;;;18.80;52.00;;;13.04;69.71;95847.19;4972685;28;20376;-46
2023/10/15 11:04:15;;;;;;;;;;;19.60;51.90;;;13.78;65.83;95844.66;4972386;28;19921;-47
2023/10/15 11:06:48;;;;;;;;;;;20.50;51.70;;;14.18;63.17;95843.56;4971305;28;19972;-48
2023/10/15 11:09:22;;;;;;;;;;;21.20;51.20;;;14.39;63.89;95836.16;4972344;28;20296;-48
2023/10/15 11:11:53;;;;;;;;;;;21.60;50.40;;;14.64;61.93;95834.34;4964386;28;19953;-47
2023/10/15 11:14:23;;;;;;;;;;;21.80;50.20;;;14.80;61.14;95841.16;4972655;28;19910;-50
2023/10/15 11:16:55;;;;;;;;;;;22.00;50.10;;;14.70;61.80;95842.06;4965266;28;19932;-48
2023/10/15 11:19:29;;;;;;;;;;;22.00;49.60;;;14.73;61.07;95836.13;4971500;28;19921;-48
2023/10/15 11:21:56;;;;;;;;;;;22.00;49.20;;;14.33;58.74;95838.09;4970539;28;19968;-51
2023/10/15 11:24:24;;;;;;;;;;;22.00;49.70;;;14.01;59.72;95833.28;4971061;28;19957;-47
2023/10/15 11:26:54;;;;;;;;;;;21.90;48.50;;;13.77;58.11;95833.16;4972189;28;20381;-48
2023/10/15 11:29:22;;;;;;;;;;;21.70;47.70;;;13.81;59.57;95839.56;4970973;28;19948;-48
2023/10/15 11:31:55;;;;;;;;;;;21.40;47.10;;;13.80;57.41;95835.28;4962087;28;20543;-49
2023/10/15 11:34:24;;;;;;;;;;;21.30;46.80;;;13.78;56.15;95829.41;4971983;28;20161;-50
2023/10/15 11:36:55;;;;;;;;;;;21.20;46.30;;;13.99;55.15;95830.06;4972901;28;19909;-49
2023/10/15 11:39:42;;;;;;;;;;;21.20;46.40;;;14.21;53.71;95824.25;4973891;28;19983;-50
2023/10/15 11:42:09;;;;;;;;;;;21.40;46.20;;;14.35;51.54;95817.16;4971786;28;19917;-56
2023/10/15 11:44:44;;;;;;;;;;;21.60;46.00;;;14.57;50.02;95829.31;4974298;28;19914;-49
2023/10/15 11:47:15;;;;;;;;;;;21.90;45.80;;;14.64;49.79;95826.31;4973391;28;20369;-52
2023/10/15 11:49:42;;;;;;;;;;;22.10;45.30;;;14.99;50.11;95835.84;4974491;28;19925;-54
2023/10/15 11:52:14;;;;;;;;;;;22.40;45.10;;;15.15;48.99;95823.03;4974426;28;19925;-52
2023/10/15 11:54:43;;;;;;;;;;;22.70;45.30;;;15.12;49.00;95821.72;4974809;28;20415;-50